createdAt,value
2018-07-16T00:03:15.944Z,19.68
2018-07-16T00:08:10.868Z,19.66
2018-07-16T00:13:05.693Z,19.76
2018-07-16T00:18:00.465Z,19.56
2018-07-16T00:22:55.250Z,19.40
2018-07-16T00:27:50.209Z,19.23
2018-07-16T00:32:44.768Z,19.07
2018-07-16T00:37:40.040Z,19.20
2018-07-16T00:42:35.241Z,19.05
2018-07-16T00:47:30.118Z,19.04
2018-07-16T00:52:24.921Z,18.99
2018-07-16T00:57:20.232Z,19.05
2018-07-16T01:02:15.244Z,18.95
2018-07-16T01:07:10.451Z,19.09
2018-07-16T01:12:05.463Z,18.92
2018-07-16T01:17:00.384Z,18.90
2018-07-16T01:21:55.255Z,18.93
2018-07-16T01:26:50.092Z,18.94
2018-07-16T01:31:44.863Z,19.04
2018-07-16T01:36:40.532Z,18.89
2018-07-16T01:41:35.386Z,18.73
2018-07-16T01:46:30.102Z,18.78
2018-07-16T01:51:24.888Z,18.70
2018-07-16T01:56:19.641Z,18.58
2018-07-16T02:01:15.729Z,18.40
2018-07-16T02:06:10.493Z,18.43
2018-07-16T02:11:05.296Z,18.62
2018-07-16T02:16:01.456Z,18.35
2018-07-16T02:20:56.208Z,18.49
2018-07-16T02:25:51.064Z,18.46
2018-07-16T02:30:45.785Z,18.45
2018-07-16T02:35:40.797Z,18.51
2018-07-16T02:40:35.651Z,18.23
2018-07-16T02:45:30.461Z,17.80
2018-07-16T02:50:25.214Z,17.95
2018-07-16T02:55:19.908Z,17.93
2018-07-16T03:00:14.692Z,17.89
2018-07-16T03:05:13.468Z,17.60
2018-07-16T03:10:08.340Z,17.58
2018-07-16T03:15:03.398Z,17.40
2018-07-16T03:19:58.091Z,17.24
2018-07-16T03:24:52.778Z,17.31
2018-07-16T03:29:47.487Z,17.63
2018-07-16T03:34:41.901Z,17.77
2018-07-16T03:39:36.718Z,17.89
2018-07-16T03:44:31.559Z,17.86
2018-07-16T03:49:26.460Z,17.80
2018-07-16T03:54:21.226Z,17.45
2018-07-16T03:59:16.171Z,17.60
2018-07-16T04:04:11.103Z,17.88
2018-07-16T04:09:07.159Z,18.06
2018-07-16T04:14:02.074Z,18.11
2018-07-16T04:18:56.882Z,18.20
2018-07-16T04:23:51.627Z,18.27
2018-07-16T04:28:46.404Z,18.10
2018-07-16T04:33:41.077Z,18.26
2018-07-16T04:38:35.517Z,18.29
2018-07-16T04:43:30.596Z,18.52
2018-07-16T04:48:25.424Z,19.07
2018-07-16T04:53:20.636Z,19.08
2018-07-16T04:58:15.350Z,19.09
2018-07-16T05:03:10.249Z,19.13
2018-07-16T05:08:04.723Z,19.01
2018-07-16T05:12:59.505Z,19.13
2018-07-16T05:17:54.219Z,19.24
2018-07-16T05:22:49.119Z,19.22
2018-07-16T05:27:44.233Z,19.41
2018-07-16T05:32:39.708Z,19.65
2018-07-16T05:37:34.280Z,20.17
2018-07-16T05:42:29.046Z,20.39
2018-07-16T05:47:23.872Z,20.45
2018-07-16T05:52:18.640Z,20.75
2018-07-16T05:57:13.396Z,21.08
2018-07-16T06:02:08.219Z,22.03
2018-07-16T06:07:02.909Z,22.00
2018-07-16T06:11:57.656Z,22.26
2018-07-16T06:16:52.426Z,21.32
2018-07-16T06:21:47.088Z,21.24
2018-07-16T06:26:41.967Z,21.16
2018-07-16T06:31:36.797Z,21.00
2018-07-16T06:36:31.656Z,20.99
2018-07-16T06:41:26.986Z,21.14
2018-07-16T06:46:21.493Z,21.32
2018-07-16T06:51:16.357Z,21.58
2018-07-16T06:56:12.092Z,22.04
2018-07-16T07:01:06.961Z,22.06
2018-07-16T07:06:01.751Z,22.55
2018-07-16T07:10:56.840Z,22.62
2018-07-16T07:15:51.627Z,22.93
2018-07-16T07:20:46.688Z,23.26
2018-07-16T07:25:41.492Z,23.87
2018-07-16T07:30:36.282Z,24.37
2018-07-16T07:35:31.093Z,24.46
2018-07-16T07:40:25.831Z,24.41
2018-07-16T07:45:20.628Z,24.99
2018-07-16T07:50:15.333Z,24.46
2018-07-16T07:55:10.338Z,24.52
2018-07-16T08:00:05.974Z,24.97
2018-07-16T08:05:00.860Z,25.02
2018-07-16T08:09:55.684Z,24.93
2018-07-16T08:14:50.382Z,25.08
2018-07-16T08:19:45.109Z,25.67
2018-07-16T08:24:39.790Z,25.88
2018-07-16T08:29:34.992Z,25.94
2018-07-16T08:34:29.783Z,26.10
2018-07-16T08:39:24.529Z,26.27
2018-07-16T08:44:22.496Z,26.30
2018-07-16T08:49:17.311Z,25.82
2018-07-16T08:54:12.284Z,25.65
2018-07-16T08:59:07.072Z,25.86
2018-07-16T09:04:01.824Z,26.07
2018-07-16T09:08:56.443Z,26.09
2018-07-16T09:13:51.205Z,26.00
2018-07-16T09:18:46.012Z,26.17
2018-07-16T09:23:40.731Z,26.19
2018-07-16T09:28:35.445Z,26.31
2018-07-16T09:33:30.827Z,26.51
2018-07-16T09:38:25.443Z,26.87
2018-07-16T09:43:20.217Z,26.75
2018-07-16T09:48:14.955Z,26.71
2018-07-16T09:53:09.775Z,26.69
2018-07-16T09:58:04.503Z,27.51
2018-07-16T10:02:59.211Z,27.50
2018-07-16T10:07:53.891Z,27.73
2018-07-16T10:12:48.571Z,27.76
2018-07-16T10:17:43.308Z,27.61
2018-07-16T10:22:38.014Z,27.78
2018-07-16T10:27:32.814Z,27.44
2018-07-16T10:32:27.547Z,27.83
2018-07-16T10:37:22.205Z,27.61
2018-07-16T10:42:16.970Z,27.53
2018-07-16T10:47:12.485Z,27.71
2018-07-16T10:52:07.316Z,28.25
2018-07-16T10:57:02.041Z,27.81
2018-07-16T11:01:56.802Z,27.94
2018-07-16T11:06:51.491Z,28.08
2018-07-16T11:11:46.205Z,28.37
2018-07-16T11:16:41.062Z,28.56
2018-07-16T11:21:35.722Z,28.58
2018-07-16T11:26:30.407Z,28.07
2018-07-16T11:31:25.179Z,28.43
2018-07-16T11:36:19.787Z,28.66
2018-07-16T11:41:14.484Z,28.79
2018-07-16T11:46:09.274Z,28.92
2018-07-16T11:51:04.216Z,29.23
2018-07-16T11:55:58.939Z,29.22
2018-07-16T12:00:53.675Z,29.39
2018-07-16T12:05:48.336Z,29.26
2018-07-16T12:10:43.063Z,29.63
2018-07-16T12:15:37.825Z,29.82
2018-07-16T12:20:32.617Z,29.58
2018-07-16T12:25:26.935Z,29.46
2018-07-16T12:30:21.625Z,29.48
2018-07-16T12:35:16.385Z,29.46
2018-07-16T12:40:11.085Z,29.57
2018-07-16T12:45:05.964Z,29.52
2018-07-16T12:50:00.816Z,29.26
2018-07-16T12:54:55.507Z,29.13
2018-07-16T12:59:50.426Z,29.17
2018-07-16T13:04:45.296Z,29.17
2018-07-16T13:09:39.995Z,28.97
2018-07-16T13:14:34.708Z,28.84
2018-07-16T13:19:29.407Z,28.69
2018-07-16T13:24:24.180Z,28.73
2018-07-16T13:29:18.767Z,28.74
2018-07-16T13:34:13.485Z,28.87
2018-07-16T13:39:10.138Z,28.73
2018-07-16T13:44:04.902Z,28.40
2018-07-16T13:48:59.511Z,27.90
2018-07-16T13:53:55.610Z,27.91
2018-07-16T13:58:50.719Z,28.05
2018-07-16T14:03:45.459Z,28.13
2018-07-16T14:08:40.120Z,28.37
2018-07-16T14:13:34.759Z,28.87
2018-07-16T14:18:29.738Z,28.74
2018-07-16T14:23:24.362Z,28.90
2018-07-16T14:28:19.048Z,28.90
2018-07-16T14:33:13.720Z,28.76
2018-07-16T14:38:08.519Z,28.41
2018-07-16T14:43:03.685Z,28.02
2018-07-16T14:47:58.311Z,28.13
2018-07-16T14:52:53.017Z,27.74
2018-07-16T14:57:47.732Z,27.67
2018-07-16T15:02:42.424Z,27.86
2018-07-16T15:07:37.249Z,28.05
2018-07-16T15:12:31.916Z,27.95
2018-07-16T15:17:26.640Z,27.90
2018-07-16T15:22:21.362Z,27.99
2018-07-16T15:27:15.991Z,27.98
2018-07-16T15:32:10.750Z,28.00
2018-07-16T15:37:05.487Z,28.10
2018-07-16T15:42:00.221Z,27.96
2018-07-16T15:46:54.881Z,28.10
2018-07-16T15:51:49.511Z,28.06
2018-07-16T15:56:44.179Z,28.06
2018-07-16T16:01:38.880Z,28.24
2018-07-16T16:06:33.638Z,28.03
2018-07-16T16:11:28.263Z,27.98
2018-07-16T16:16:22.999Z,27.91
2018-07-16T16:21:19.200Z,28.01
2018-07-16T16:26:13.987Z,27.92
2018-07-16T16:31:08.751Z,27.97
2018-07-16T16:36:03.548Z,27.88
2018-07-16T16:40:58.288Z,27.90
2018-07-16T16:45:53.663Z,27.74
2018-07-16T16:50:48.296Z,27.72
2018-07-16T16:55:43.108Z,27.44
2018-07-16T17:00:37.822Z,27.48
2018-07-16T17:05:32.897Z,27.50
2018-07-16T17:10:27.660Z,27.40
2018-07-16T17:15:22.350Z,27.26
2018-07-16T17:20:17.010Z,27.22
2018-07-16T17:25:11.688Z,27.21
2018-07-16T17:30:06.494Z,27.17
2018-07-16T17:35:01.155Z,27.00
2018-07-16T17:39:55.805Z,27.03
2018-07-16T17:44:51.422Z,26.89
2018-07-16T17:49:46.288Z,26.83
2018-07-16T17:54:40.946Z,26.84
2018-07-16T17:59:35.691Z,26.67
2018-07-16T18:04:30.431Z,26.57
2018-07-16T18:09:25.088Z,26.38
2018-07-16T18:14:19.687Z,26.21
2018-07-16T18:19:14.363Z,26.02
2018-07-16T18:24:08.769Z,25.96
2018-07-16T18:29:03.550Z,25.91
2018-07-16T18:33:58.607Z,25.91
2018-07-16T18:38:53.352Z,25.58
2018-07-16T18:43:48.240Z,25.47
2018-07-16T18:48:42.961Z,25.49
2018-07-16T18:53:37.647Z,25.29
2018-07-16T18:58:34.345Z,25.13
2018-07-16T19:03:29.355Z,25.11
2018-07-16T19:08:24.104Z,24.85
2018-07-16T19:13:18.902Z,24.79
2018-07-16T19:18:13.771Z,24.66
2018-07-16T19:23:08.553Z,24.55
2018-07-16T19:28:03.422Z,24.55
2018-07-16T19:32:58.272Z,24.67
2018-07-16T19:37:54.579Z,24.50
2018-07-16T19:42:49.202Z,24.30
2018-07-16T19:47:44.357Z,24.10
2018-07-16T19:52:39.063Z,23.99
2018-07-16T19:57:34.066Z,23.86
2018-07-16T20:02:29.019Z,23.65
2018-07-16T20:07:23.948Z,23.55
2018-07-16T20:12:28.102Z,23.51
2018-07-16T20:17:22.775Z,23.34
2018-07-16T20:22:17.528Z,23.26
2018-07-16T20:27:12.160Z,23.16
2018-07-16T20:32:06.961Z,23.09
2018-07-16T20:37:01.852Z,22.93
2018-07-16T20:41:56.480Z,22.70
2018-07-16T20:46:51.153Z,22.64
2018-07-16T20:51:45.879Z,22.71
2018-07-16T20:56:40.758Z,22.74
2018-07-16T21:01:35.446Z,22.60
2018-07-16T21:06:30.154Z,22.37
2018-07-16T21:11:24.839Z,22.44
2018-07-16T21:16:19.548Z,22.39
2018-07-16T21:21:14.200Z,22.33
2018-07-16T21:26:08.969Z,22.13
2018-07-16T21:31:03.683Z,22.23
2018-07-16T21:35:58.816Z,22.06
2018-07-16T21:40:53.381Z,22.01
2018-07-16T21:45:48.011Z,21.85
2018-07-16T21:50:42.593Z,21.83
2018-07-16T21:55:37.260Z,21.55
2018-07-16T22:00:32.482Z,21.54
2018-07-16T22:05:28.194Z,21.57
2018-07-16T22:10:23.428Z,21.10
2018-07-16T22:15:25.196Z,21.41
2018-07-16T22:20:19.979Z,21.17
2018-07-16T22:25:14.835Z,21.06
2018-07-16T22:30:09.555Z,20.88
2018-07-16T22:35:04.537Z,20.90
2018-07-16T22:39:59.128Z,21.03
2018-07-16T22:44:53.892Z,20.92
2018-07-16T22:49:48.529Z,20.71
2018-07-16T22:54:43.126Z,20.39
2018-07-16T22:59:37.473Z,20.34
2018-07-16T23:04:32.152Z,20.73
2018-07-16T23:09:26.760Z,20.77
2018-07-16T23:14:21.725Z,20.77
2018-07-16T23:19:16.323Z,20.63
2018-07-16T23:24:11.079Z,20.20
2018-07-16T23:29:05.655Z,20.26
2018-07-16T23:34:00.154Z,20.41
2018-07-16T23:38:54.941Z,20.42
2018-07-16T23:43:49.614Z,19.97
2018-07-16T23:48:44.403Z,19.76
2018-07-16T23:53:38.971Z,19.71
2018-07-16T23:58:33.975Z,19.81
